createdAt,value
2018-06-10T00:02:19.836Z,24.50
2018-06-10T00:04:48.347Z,24.30
2018-06-10T00:07:16.524Z,23.40
2018-06-10T00:09:44.706Z,24.40
2018-06-10T00:12:13.185Z,27.03
2018-06-10T00:14:41.698Z,25.13
2018-06-10T00:17:10.187Z,25.47
2018-06-10T00:19:38.704Z,26.90
2018-06-10T00:22:07.255Z,26.57
2018-06-10T00:24:35.766Z,29.40
2018-06-10T00:27:04.296Z,28.63
2018-06-10T00:29:33.024Z,27.40
2018-06-10T00:32:01.279Z,28.40
2018-06-10T00:34:29.446Z,27.13
2018-06-10T00:36:57.966Z,29.17
2018-06-10T00:39:26.145Z,28.43
2018-06-10T00:41:54.647Z,29.60
2018-06-10T00:44:23.139Z,30.57
2018-06-10T00:46:51.620Z,30.10
2018-06-10T00:49:20.140Z,28.30
2018-06-10T00:51:48.616Z,30.07
2018-06-10T00:54:16.778Z,27.10
2018-06-10T00:56:52.673Z,28.77
2018-06-10T00:59:21.210Z,29.27
2018-06-10T01:01:49.366Z,29.90
2018-06-10T01:04:17.519Z,29.50
2018-06-10T01:06:45.661Z,30.17
2018-06-10T01:09:14.149Z,28.53
2018-06-10T01:11:42.333Z,30.03
2018-06-10T01:14:10.510Z,33.03
2018-06-10T01:16:38.695Z,30.20
2018-06-10T01:19:06.851Z,31.20
2018-06-10T01:21:35.364Z,30.10
2018-06-10T01:24:03.883Z,30.60
2018-06-10T01:26:37.520Z,29.80
2018-06-10T01:29:05.691Z,30.40
2018-06-10T01:31:34.208Z,28.20
2018-06-10T01:34:02.740Z,28.73
2018-06-10T01:36:30.914Z,27.83
2018-06-10T01:38:59.078Z,29.00
2018-06-10T01:41:27.248Z,28.40
2018-06-10T01:43:55.419Z,29.90
2018-06-10T01:46:23.555Z,28.23
2018-06-10T01:48:52.070Z,29.37
2018-06-10T01:51:20.556Z,29.63
2018-06-10T01:53:49.044Z,30.03
2018-06-10T01:56:17.206Z,28.97
2018-06-10T01:58:45.695Z,27.30
2018-06-10T02:01:14.195Z,27.67
2018-06-10T02:03:42.362Z,28.17
2018-06-10T02:06:10.892Z,27.03
2018-06-10T02:08:39.380Z,24.97
2018-06-10T02:11:07.552Z,26.63
2018-06-10T02:13:35.722Z,25.97
2018-06-10T02:16:04.202Z,26.93
2018-06-10T02:18:32.705Z,27.77
2018-06-10T02:21:01.170Z,26.43
2018-06-10T02:23:29.682Z,25.67
2018-06-10T02:25:57.877Z,28.20
2018-06-10T02:28:26.448Z,26.10
2018-06-10T02:30:54.978Z,26.17
2018-06-10T02:33:23.500Z,26.37
2018-06-10T02:35:51.693Z,27.23
2018-06-10T02:38:19.865Z,27.07
2018-06-10T02:40:48.393Z,27.30
2018-06-10T02:43:16.904Z,27.17
2018-06-10T02:45:45.113Z,27.20
2018-06-10T02:48:13.633Z,27.67
2018-06-10T02:50:41.909Z,30.83
2018-06-10T02:53:10.083Z,30.93
2018-06-10T02:55:38.589Z,28.53
2018-06-10T02:58:07.106Z,28.93
2018-06-10T03:00:35.283Z,28.23
2018-06-10T03:03:03.822Z,26.73
2018-06-10T03:05:32.361Z,27.10
2018-06-10T03:08:00.830Z,27.10
2018-06-10T03:10:29.338Z,28.50
2018-06-10T03:12:57.879Z,28.30
2018-06-10T03:15:26.368Z,27.30
2018-06-10T03:17:54.834Z,27.80
2018-06-10T03:20:23.357Z,29.47
2018-06-10T03:22:51.854Z,31.57
2018-06-10T03:25:20.012Z,28.57
2018-06-10T03:27:48.572Z,31.70
2018-06-10T03:30:17.136Z,31.57
2018-06-10T03:32:45.307Z,32.40
2018-06-10T03:35:13.789Z,30.77
2018-06-10T03:37:42.327Z,28.57
2018-06-10T03:40:10.446Z,28.50
2018-06-10T03:42:38.622Z,30.80
2018-06-10T03:45:07.126Z,32.67
2018-06-10T03:47:35.285Z,28.43
2018-06-10T03:50:03.874Z,29.60
2018-06-10T03:52:32.066Z,30.67
2018-06-10T03:55:00.252Z,29.30
2018-06-10T03:57:28.810Z,31.20
2018-06-10T03:59:57.319Z,28.20
2018-06-10T04:02:25.464Z,27.77
2018-06-10T04:04:53.637Z,27.17
2018-06-10T04:07:21.802Z,27.17
2018-06-10T04:09:50.281Z,27.20
2018-06-10T04:12:19.007Z,30.60
2018-06-10T04:14:47.469Z,30.50
2018-06-10T04:17:16.034Z,28.60
2018-06-10T04:19:44.538Z,30.47
2018-06-10T04:22:12.743Z,32.10
2018-06-10T04:24:41.257Z,28.67
2018-06-10T04:27:09.780Z,28.70
2018-06-10T04:29:37.956Z,30.77
2018-06-10T04:32:06.534Z,29.30
2018-06-10T04:34:35.067Z,30.30
2018-06-10T04:37:03.266Z,29.07
2018-06-10T04:39:31.810Z,32.63
2018-06-10T04:42:00.384Z,29.93
2018-06-10T04:44:28.900Z,29.57
2018-06-10T04:46:57.476Z,31.83
2018-06-10T04:49:26.055Z,29.80
2018-06-10T04:51:54.582Z,30.23
2018-06-10T04:54:22.758Z,32.53
2018-06-10T04:56:51.218Z,32.70
2018-06-10T04:59:19.708Z,32.10
2018-06-10T05:01:48.191Z,31.80
2018-06-10T05:04:16.680Z,28.53
2018-06-10T05:06:44.832Z,28.10
2018-06-10T05:09:13.032Z,26.63
2018-06-10T05:11:41.564Z,22.20
2018-06-10T05:14:10.087Z,19.43
2018-06-10T05:16:40.686Z,22.80
2018-06-10T05:19:08.977Z,17.57
2018-06-10T05:21:37.196Z,18.10
2018-06-10T05:24:05.961Z,16.90
2018-06-10T05:26:34.132Z,17.03
2018-06-10T05:29:02.498Z,18.30
2018-06-10T05:31:30.687Z,16.40
2018-06-10T05:33:59.173Z,17.10
2018-06-10T05:36:27.350Z,14.23
2018-06-10T05:38:55.828Z,14.43
2018-06-10T05:41:25.284Z,12.60
2018-06-10T05:43:53.843Z,12.40
2018-06-10T05:46:22.009Z,12.10
2018-06-10T05:48:50.612Z,10.07
2018-06-10T05:51:18.931Z,9.83
2018-06-10T05:53:47.136Z,10.57
2018-06-10T05:56:15.306Z,10.97
2018-06-10T05:58:43.930Z,10.17
2018-06-10T06:01:12.122Z,10.43
2018-06-10T06:03:40.628Z,10.20
2018-06-10T06:06:08.803Z,11.27
2018-06-10T06:08:36.989Z,9.70
2018-06-10T06:11:05.515Z,10.90
2018-06-10T06:13:34.001Z,10.97
2018-06-10T06:16:02.395Z,10.47
2018-06-10T06:18:30.891Z,10.90
2018-06-10T06:20:59.083Z,11.47
2018-06-10T06:23:27.256Z,11.67
2018-06-10T06:25:55.872Z,12.27
2018-06-10T06:28:24.391Z,13.13
2018-06-10T06:30:52.903Z,12.27
2018-06-10T06:33:21.491Z,12.73
2018-06-10T06:35:50.012Z,13.67
2018-06-10T06:38:18.521Z,14.30
2018-06-10T06:40:47.032Z,14.80
2018-06-10T06:43:15.544Z,15.20
2018-06-10T06:45:43.940Z,15.23
2018-06-10T06:48:12.105Z,15.27
2018-06-10T06:50:40.582Z,14.73
2018-06-10T06:53:09.105Z,13.43
2018-06-10T06:55:37.352Z,14.43
2018-06-10T06:58:05.555Z,15.73
2018-06-10T07:00:33.788Z,14.73
2018-06-10T07:03:01.970Z,13.63
2018-06-10T07:05:30.448Z,14.37
2018-06-10T07:07:58.937Z,13.00
2018-06-10T07:10:27.138Z,14.47
2018-06-10T07:12:55.383Z,13.00
2018-06-10T07:15:23.608Z,13.07
2018-06-10T07:17:52.939Z,11.90
2018-06-10T07:20:21.525Z,11.07
2018-06-10T07:22:49.944Z,11.83
2018-06-10T07:25:18.607Z,11.27
2018-06-10T07:27:47.101Z,10.17
2018-06-10T07:30:15.307Z,13.53
2018-06-10T07:32:43.790Z,12.10
2018-06-10T07:35:12.317Z,15.40
2018-06-10T07:37:40.504Z,12.40
2018-06-10T07:40:09.039Z,12.47
2018-06-10T07:42:37.551Z,11.50
2018-06-10T07:45:05.767Z,13.20
2018-06-10T07:47:33.969Z,12.63
2018-06-10T07:50:02.165Z,12.73
2018-06-10T07:52:30.384Z,14.10
2018-06-10T07:54:58.863Z,13.27
2018-06-10T07:57:27.384Z,11.67
2018-06-10T07:59:55.842Z,10.70
2018-06-10T08:02:24.360Z,11.17
2018-06-10T08:04:52.583Z,12.70
2018-06-10T08:07:21.181Z,10.57
2018-06-10T08:09:49.664Z,11.73
2018-06-10T08:12:18.253Z,10.67
2018-06-10T08:14:47.214Z,11.57
2018-06-10T08:17:15.473Z,10.40
2018-06-10T08:19:43.644Z,11.13
2018-06-10T08:22:12.170Z,12.50
2018-06-10T08:24:40.681Z,11.57
2018-06-10T08:27:09.249Z,11.07
2018-06-10T08:29:37.547Z,11.67
2018-06-10T08:32:05.759Z,10.07
2018-06-10T08:34:34.275Z,9.93
2018-06-10T08:37:02.778Z,10.83
2018-06-10T08:39:31.317Z,12.07
2018-06-10T08:41:59.498Z,11.30
2018-06-10T08:44:27.669Z,10.60
2018-06-10T08:46:55.837Z,12.17
2018-06-10T08:49:24.052Z,11.50
2018-06-10T08:51:52.219Z,13.20
2018-06-10T08:54:20.757Z,13.20
2018-06-10T08:56:49.212Z,10.17
2018-06-10T08:59:17.730Z,10.93
2018-06-10T09:01:46.249Z,11.70
2018-06-10T09:04:14.746Z,11.40
2018-06-10T09:06:42.959Z,11.77
2018-06-10T09:09:11.209Z,10.30
2018-06-10T09:11:39.731Z,11.23
2018-06-10T09:14:07.937Z,10.70
2018-06-10T09:16:36.452Z,11.57
2018-06-10T09:19:05.093Z,11.30
2018-06-10T09:21:33.289Z,11.47
2018-06-10T09:24:01.451Z,11.03
2018-06-10T09:26:29.663Z,12.37
2018-06-10T09:28:58.183Z,13.20
2018-06-10T09:31:27.779Z,11.50
2018-06-10T09:33:56.017Z,12.20
2018-06-10T09:36:24.609Z,13.17
2018-06-10T09:38:52.910Z,11.70
2018-06-10T09:41:21.459Z,11.40
2018-06-10T09:43:50.607Z,11.47
2018-06-10T09:46:19.161Z,11.03
2018-06-10T09:48:47.710Z,11.37
2018-06-10T09:51:16.249Z,11.33
2018-06-10T09:53:44.805Z,11.27
2018-06-10T09:56:13.373Z,12.13
2018-06-10T09:58:41.870Z,12.30
2018-06-10T10:01:10.364Z,13.70
2018-06-10T10:03:38.527Z,12.27
2018-06-10T10:06:07.024Z,11.70
2018-06-10T10:08:35.200Z,11.20
2018-06-10T10:11:03.766Z,11.87
2018-06-10T10:13:32.286Z,12.10
2018-06-10T10:16:00.807Z,11.80
2018-06-10T10:18:28.997Z,11.20
2018-06-10T10:20:57.574Z,11.13
2018-06-10T10:23:26.124Z,10.70
2018-06-10T10:25:54.768Z,11.70
2018-06-10T10:28:23.377Z,10.23
2018-06-10T10:30:51.888Z,12.40
2018-06-10T10:33:20.399Z,11.27
2018-06-10T10:35:48.572Z,11.70
2018-06-10T10:38:17.169Z,10.60
2018-06-10T10:40:45.689Z,10.50
2018-06-10T10:43:14.248Z,11.10
2018-06-10T10:45:42.739Z,9.47
2018-06-10T10:48:11.288Z,10.30
2018-06-10T10:50:39.840Z,10.07
2018-06-10T10:53:08.364Z,9.00
2018-06-10T10:55:36.548Z,9.00
2018-06-10T10:58:05.098Z,9.70
2018-06-10T11:00:33.598Z,10.27
2018-06-10T11:03:02.149Z,11.57
2018-06-10T11:05:30.690Z,13.77
2018-06-10T11:07:59.181Z,11.93
2018-06-10T11:10:27.498Z,12.03
2018-06-10T11:12:56.040Z,11.47
2018-06-10T11:15:24.570Z,10.23
2018-06-10T11:17:53.118Z,9.53
2018-06-10T11:20:21.342Z,9.33
2018-06-10T11:22:49.517Z,8.23
2018-06-10T11:25:18.040Z,7.63
2018-06-10T11:27:46.529Z,6.87
2018-06-10T11:30:14.732Z,7.67
2018-06-10T11:32:43.214Z,8.50
2018-06-10T11:35:11.453Z,7.83
2018-06-10T11:37:39.955Z,7.73
2018-06-10T11:40:08.593Z,8.40
2018-06-10T11:42:36.783Z,8.40
2018-06-10T11:45:05.359Z,8.00
2018-06-10T11:47:33.918Z,9.80
2018-06-10T11:50:02.096Z,9.60
2018-06-10T11:52:30.680Z,9.30
2018-06-10T11:54:59.176Z,8.60
2018-06-10T11:57:27.687Z,9.60
2018-06-10T11:59:56.201Z,9.90
2018-06-10T12:02:25.037Z,9.70
2018-06-10T12:04:53.536Z,10.20
2018-06-10T12:07:21.747Z,9.80
2018-06-10T12:09:49.962Z,9.17
2018-06-10T12:12:18.479Z,9.30
2018-06-10T12:14:46.762Z,8.57
2018-06-10T12:17:14.956Z,8.80
2018-06-10T12:19:43.147Z,8.50
2018-06-10T12:22:11.400Z,7.67
2018-06-10T12:24:39.582Z,8.70
2018-06-10T12:27:08.075Z,8.10
2018-06-10T12:29:36.563Z,9.40
2018-06-10T12:32:04.767Z,9.53
2018-06-10T12:34:33.257Z,8.37
2018-06-10T12:37:01.800Z,9.10
2018-06-10T12:39:31.242Z,7.57
2018-06-10T12:41:59.759Z,8.57
2018-06-10T12:44:27.932Z,7.53
2018-06-10T12:46:56.467Z,9.47
2018-06-10T12:49:25.047Z,8.70
2018-06-10T12:51:53.240Z,7.50
2018-06-10T12:54:21.782Z,7.83
2018-06-10T12:56:50.027Z,8.07
2018-06-10T12:59:18.255Z,7.60
2018-06-10T13:01:47.246Z,6.60
2018-06-10T13:04:15.819Z,7.47
2018-06-10T13:06:44.366Z,6.90
2018-06-10T13:09:12.584Z,7.40
2018-06-10T13:11:40.825Z,8.17
2018-06-10T13:14:09.378Z,6.80
2018-06-10T13:16:37.911Z,7.87
2018-06-10T13:19:06.531Z,7.50
2018-06-10T13:21:35.065Z,7.30
2018-06-10T13:24:03.648Z,7.30
2018-06-10T13:26:31.851Z,7.00
2018-06-10T13:29:00.390Z,8.20
2018-06-10T13:31:28.558Z,7.87
2018-06-10T13:33:56.731Z,7.60
2018-06-10T13:36:25.265Z,7.70
2018-06-10T13:38:54.069Z,9.03
2018-06-10T13:41:22.256Z,9.30
2018-06-10T13:43:50.420Z,7.90
2018-06-10T13:46:18.970Z,8.77
2018-06-10T13:48:47.150Z,8.23
2018-06-10T13:51:15.700Z,8.60
2018-06-10T13:53:43.910Z,8.97
2018-06-10T13:56:12.903Z,9.80
2018-06-10T13:58:41.077Z,9.83
2018-06-10T14:01:09.647Z,8.97
2018-06-10T14:03:38.161Z,10.37
2018-06-10T14:06:06.418Z,8.50
2018-06-10T14:08:34.589Z,10.00
2018-06-10T14:11:02.765Z,8.50
2018-06-10T14:13:31.298Z,9.53
2018-06-10T14:15:59.824Z,8.53
2018-06-10T14:18:28.334Z,9.00
2018-06-10T14:20:56.914Z,9.10
2018-06-10T14:23:25.484Z,9.47
2018-06-10T14:25:54.068Z,9.50
2018-06-10T14:28:22.249Z,8.03
2018-06-10T14:30:50.803Z,8.97
2018-06-10T14:33:19.450Z,9.17
2018-06-10T14:35:47.999Z,10.30
2018-06-10T14:38:16.525Z,9.37
2018-06-10T14:40:45.373Z,8.03
2018-06-10T14:43:13.660Z,9.50
2018-06-10T14:45:42.173Z,9.07
2018-06-10T14:48:10.806Z,8.60
2018-06-10T14:50:39.355Z,9.67
2018-06-10T14:53:07.559Z,9.93
2018-06-10T14:55:36.155Z,9.30
2018-06-10T14:58:04.454Z,9.70
2018-06-10T15:00:33.327Z,8.97
2018-06-10T15:03:01.585Z,9.07
2018-06-10T15:05:30.153Z,8.70
2018-06-10T15:07:58.366Z,8.30
2018-06-10T15:10:26.980Z,7.70
2018-06-10T15:12:55.182Z,8.30
2018-06-10T15:15:23.739Z,8.13
2018-06-10T15:17:52.374Z,8.33
2018-06-10T15:20:20.574Z,7.00
2018-06-10T15:22:49.108Z,7.60
2018-06-10T15:25:17.682Z,7.50
2018-06-10T15:27:46.267Z,7.20
2018-06-10T15:30:14.881Z,7.97
2018-06-10T15:32:43.882Z,7.30
2018-06-10T15:35:12.432Z,7.80
2018-06-10T15:37:40.970Z,7.70
2018-06-10T15:40:09.579Z,6.93
2018-06-10T15:42:38.072Z,7.10
2018-06-10T15:45:06.274Z,8.00
2018-06-10T15:47:34.769Z,7.17
2018-06-10T15:50:03.364Z,6.60
2018-06-10T15:52:31.560Z,6.73
2018-06-10T15:55:00.116Z,7.20
2018-06-10T15:57:28.336Z,7.47
2018-06-10T15:59:56.852Z,6.60
2018-06-10T16:02:26.358Z,8.73
2018-06-10T16:04:54.967Z,8.03
2018-06-10T16:07:23.483Z,8.17
2018-06-10T16:09:51.985Z,7.17
2018-06-10T16:12:20.181Z,7.50
2018-06-10T16:14:48.853Z,7.30
2018-06-10T16:17:18.883Z,6.63
2018-06-10T16:19:47.481Z,7.20
2018-06-10T16:22:16.026Z,6.63
2018-06-10T16:24:44.571Z,6.40
2018-06-10T16:27:13.113Z,6.80
2018-06-10T16:29:41.283Z,6.40
2018-06-10T16:32:09.841Z,5.63
2018-06-10T16:34:38.027Z,5.83
2018-06-10T16:37:06.913Z,5.20
2018-06-10T16:39:35.099Z,4.70
2018-06-10T16:42:03.646Z,5.60
2018-06-10T16:44:32.233Z,5.77
2018-06-10T16:47:00.401Z,4.80
2018-06-10T16:49:28.960Z,5.90
2018-06-10T16:51:57.174Z,4.83
2018-06-10T16:54:25.713Z,5.50
2018-06-10T16:56:53.927Z,4.73
2018-06-10T16:59:22.505Z,4.70
2018-06-10T17:01:51.079Z,4.50
2018-06-10T17:04:19.634Z,5.17
2018-06-10T17:06:47.870Z,4.27
2018-06-10T17:09:16.495Z,5.40
2018-06-10T17:11:46.094Z,5.37
2018-06-10T17:14:14.316Z,4.50
2018-06-10T17:16:42.885Z,5.70
2018-06-10T17:19:11.441Z,5.27
2018-06-10T17:21:39.939Z,4.70
2018-06-10T17:24:08.501Z,5.30
2018-06-10T17:26:37.146Z,4.73
2018-06-10T17:29:05.364Z,5.30
2018-06-10T17:31:33.987Z,5.27
2018-06-10T17:34:02.553Z,5.00
2018-06-10T17:36:30.717Z,5.27
2018-06-10T17:38:58.958Z,5.20
2018-06-10T17:41:27.204Z,5.60
2018-06-10T17:43:55.876Z,5.27
2018-06-10T17:46:24.085Z,6.00
2018-06-10T17:48:52.681Z,5.60
2018-06-10T17:51:21.242Z,5.00
2018-06-10T17:53:49.565Z,5.30
2018-06-10T17:56:18.270Z,6.00
2018-06-10T17:58:46.481Z,6.00
2018-06-10T18:01:14.743Z,5.10
2018-06-10T18:03:43.306Z,5.23
2018-06-10T18:06:11.901Z,5.57
2018-06-10T18:08:40.435Z,5.30
2018-06-10T18:11:09.043Z,5.20
2018-06-10T18:13:37.248Z,6.20
2018-06-10T18:16:05.515Z,5.60
2018-06-10T18:18:34.522Z,5.40
2018-06-10T18:21:02.835Z,5.93
2018-06-10T18:23:31.027Z,5.63
2018-06-10T18:26:00.540Z,4.97
2018-06-10T18:28:28.790Z,6.83
2018-06-10T18:30:57.409Z,5.73
2018-06-10T18:33:26.491Z,5.87
2018-06-10T18:35:59.311Z,5.90
2018-06-10T18:38:27.577Z,6.47
2018-06-10T18:40:58.040Z,5.63
2018-06-10T18:43:27.040Z,6.30
2018-06-10T18:45:55.674Z,6.10
2018-06-10T18:48:24.331Z,6.47
2018-06-10T18:50:52.603Z,6.23
2018-06-10T18:53:22.815Z,6.73
2018-06-10T18:55:51.259Z,6.30
2018-06-10T18:58:19.981Z,6.67
2018-06-10T19:00:52.653Z,6.00
2018-06-10T19:03:22.792Z,6.23
2018-06-10T19:05:51.100Z,6.43
2018-06-10T19:08:20.987Z,7.20
2018-06-10T19:10:50.008Z,6.10
2018-06-10T19:13:19.013Z,7.47
2018-06-10T19:15:48.650Z,6.43
2018-06-10T19:18:17.316Z,6.87
2018-06-10T19:20:45.997Z,6.80
2018-06-10T19:23:14.894Z,6.73
2018-06-10T19:25:43.181Z,7.20
2018-06-10T19:28:12.701Z,7.50
2018-06-10T19:30:41.425Z,7.03
2018-06-10T19:33:09.760Z,7.27
2018-06-10T19:35:38.466Z,7.17
2018-06-10T19:38:08.658Z,7.07
2018-06-10T19:40:41.341Z,7.03
2018-06-10T19:43:09.728Z,7.00
2018-06-10T19:45:38.378Z,6.83
2018-06-10T19:48:07.128Z,7.10
2018-06-10T19:50:35.609Z,7.00
2018-06-10T19:53:03.965Z,7.53
2018-06-10T19:55:32.626Z,7.40
2018-06-10T19:58:01.611Z,7.33
2018-06-10T20:00:31.098Z,7.73
2018-06-10T20:02:59.970Z,7.37
2018-06-10T20:05:28.269Z,7.03
2018-06-10T20:07:57.276Z,7.27
2018-06-10T20:10:25.983Z,7.80
2018-06-10T20:15:45.062Z,8.20
2018-06-10T20:18:13.303Z,7.63
2018-06-10T20:20:41.906Z,7.73
2018-06-10T20:23:10.776Z,8.17
2018-06-10T20:25:39.447Z,9.03
2018-06-10T20:28:08.284Z,8.40
2018-06-10T20:30:37.049Z,8.50
2018-06-10T20:33:05.655Z,7.57
2018-06-10T20:35:34.286Z,9.17
2018-06-10T20:38:02.800Z,10.00
2018-06-10T20:40:30.971Z,7.93
2018-06-10T20:42:59.772Z,9.50
2018-06-10T20:45:28.288Z,9.03
2018-06-10T20:47:56.555Z,9.17
2018-06-10T20:50:24.775Z,8.40
2018-06-10T20:52:54.233Z,8.80
2018-06-10T20:55:22.700Z,8.97
2018-06-10T20:57:50.794Z,8.10
2018-06-10T21:00:19.017Z,8.40
2018-06-10T21:02:47.542Z,7.53
2018-06-10T21:05:16.020Z,8.10
2018-06-10T21:07:44.498Z,8.20
2018-06-10T21:10:12.666Z,9.27
2018-06-10T21:12:40.804Z,9.60
2018-06-10T21:15:09.342Z,9.23
2018-06-10T21:17:37.518Z,8.77
2018-06-10T21:20:06.059Z,9.43
2018-06-10T21:22:34.639Z,9.00
2018-06-10T21:25:03.071Z,8.60
2018-06-10T21:27:31.548Z,9.30
2018-06-10T21:29:59.900Z,8.20
2018-06-10T21:32:28.012Z,9.30
2018-06-10T21:34:56.441Z,9.10
2018-06-10T21:37:24.900Z,9.10
2018-06-10T21:39:53.358Z,8.93
2018-06-10T21:42:21.460Z,8.37
2018-06-10T21:44:49.881Z,8.40
2018-06-10T21:47:18.341Z,9.63
2018-06-10T21:49:46.769Z,8.47
2018-06-10T21:52:14.882Z,8.97
2018-06-10T21:54:43.331Z,8.90
2018-06-10T21:57:11.919Z,8.60
2018-06-10T21:59:40.418Z,8.80
2018-06-10T22:02:08.862Z,9.47
2018-06-10T22:04:37.354Z,9.60
2018-06-10T22:07:05.777Z,8.77
2018-06-10T22:09:33.895Z,9.10
2018-06-10T22:12:02.323Z,8.93
2018-06-10T22:14:30.767Z,10.13
2018-06-10T22:16:58.923Z,10.53
2018-06-10T22:19:27.360Z,10.30
2018-06-10T22:21:55.803Z,8.70
2018-06-10T22:24:24.215Z,10.03
2018-06-10T22:26:52.638Z,9.73
2018-06-10T22:29:20.773Z,10.33
2018-06-10T22:31:49.217Z,9.63
2018-06-10T22:34:17.314Z,9.93
2018-06-10T22:36:45.797Z,9.73
2018-06-10T22:39:14.207Z,9.60
2018-06-10T22:41:42.343Z,9.97
2018-06-10T22:44:10.471Z,8.90
2018-06-10T22:46:38.567Z,9.70
2018-06-10T22:49:06.702Z,9.60
2018-06-10T22:51:35.111Z,10.17
2018-06-10T22:54:14.632Z,10.50
2018-06-10T22:56:43.102Z,9.77
2018-06-10T22:59:11.515Z,11.63
2018-06-10T23:01:39.937Z,10.43
2018-06-10T23:04:08.062Z,9.80
2018-06-10T23:06:36.478Z,9.90
2018-06-10T23:09:06.740Z,12.10
2018-06-10T23:11:35.141Z,10.23
2018-06-10T23:14:03.801Z,10.73
2018-06-10T23:16:31.993Z,10.83
2018-06-10T23:19:00.441Z,11.03
2018-06-10T23:21:28.549Z,11.27
2018-06-10T23:23:56.971Z,10.40
2018-06-10T23:26:25.399Z,10.10
2018-06-10T23:28:53.800Z,11.00
2018-06-10T23:31:22.189Z,11.60
2018-06-10T23:33:50.603Z,12.07
2018-06-10T23:36:18.722Z,12.10
2018-06-10T23:38:46.833Z,11.80
2018-06-10T23:41:15.245Z,12.40
2018-06-10T23:43:43.353Z,11.60
2018-06-10T23:46:11.759Z,11.20
2018-06-10T23:48:40.229Z,11.90
2018-06-10T23:51:08.690Z,13.40
2018-06-10T23:53:36.828Z,13.87
2018-06-10T23:56:05.272Z,11.57
2018-06-10T23:58:33.728Z,13.30
